Time;durP1;ratioP1;P1;durP2;ratioP2;P2;SDS_P1;SDS_P2;PMS_P1;PMS_P2;Temp;Humidity;BMP_temperature;BMP_pressure;BME280_temperature;BME280_humidity;BME280_pressure;Samples;Min_cycle;Max_cycle;Signal;HPM_P1;HPM_P2
2020/12/21 00:00:19;;;;;;;12.98;6.13;;;;;;;5.47;94.35;101766.25;6172773;23;20023;-91
2020/12/21 00:02:58;;;;;;;14.82;6.05;;;;;;;5.47;94.39;101765.41;6139500;23;20439;-92
2020/12/21 00:08:53;;;;;;;10.05;6.13;;;;;;;5.38;94.64;101766.75;6363921;22;20042;-92
2020/12/21 00:11:30;;;;;;;12.10;5.70;;;;;;;5.36;94.33;101763.28;6326015;22;20019;-93
2020/12/21 00:14:02;;;;;;;17.48;6.28;;;;;;;5.37;94.45;101765.00;6305099;22;20025;-94
2020/12/21 00:16:44;;;;;;;17.50;6.38;;;;;;;5.37;94.46;101770.34;6299518;22;20018;-92
2020/12/21 00:19:11;;;;;;;15.90;6.65;;;;;;;5.31;94.67;101758.19;6338174;22;20060;-91
2020/12/21 00:21:38;;;;;;;16.33;7.20;;;;;;;5.22;94.61;101762.19;6298886;22;20014;-89
2020/12/21 00:24:07;;;;;;;15.93;7.28;;;;;;;5.23;94.66;101769.25;6332241;22;20025;-91
2020/12/21 00:26:33;;;;;;;21.67;8.07;;;;;;;5.25;94.84;101770.03;6315290;22;20022;-90
2020/12/21 00:29:02;;;;;;;22.30;8.75;;;;;;;5.26;95.27;101768.25;6314354;22;20010;-89
2020/12/21 00:31:32;;;;;;;16.20;7.13;;;;;;;5.21;94.79;101771.16;6273358;22;20006;-91
2020/12/21 00:34:01;;;;;;;;;;;;;;;5.21;95.22;101765.81;6313447;22;20085;-93
2020/12/21 00:36:36;;;;;;;20.40;6.90;;;;;;;5.16;95.55;101772.34;6341197;22;19958;-91
2020/12/21 00:39:03;;;;;;;20.20;7.57;;;;;;;5.14;95.43;101772.41;6338975;22;20015;-90
2020/12/21 00:41:32;;;;;;;19.08;7.10;;;;;;;5.16;95.23;101767.00;6340114;22;20109;-91
2020/12/21 00:43:57;;;;;;;16.33;7.68;;;;;;;5.12;95.69;101766.28;6272652;22;20023;-91
2020/12/21 00:46:26;;;;;;;16.58;7.60;;;;;;;5.07;95.66;101768.34;6313340;22;20010;-92
2020/12/21 00:48:57;;;;;;;18.63;7.40;;;;;;;5.01;95.37;101763.31;6339363;22;20014;-91
2020/12/21 00:51:23;;;;;;;15.98;6.95;;;;;;;5.01;95.37;101765.97;6298812;22;20018;-93
2020/12/21 00:53:51;;;;;;;23.08;8.10;;;;;;;4.95;95.95;101759.16;6287131;22;20010;-91
2020/12/21 00:56:18;;;;;;;21.13;7.87;;;;;;;4.95;96.01;101753.81;6298164;22;20022;-92
2020/12/21 00:58:45;;;;;;;18.77;7.10;;;;;;;5.00;95.81;101757.09;6314384;22;20234;-95
2020/12/21 01:01:20;;;;;;;21.80;7.22;;;;;;;4.98;95.87;101758.13;6296029;22;20064;-92
2020/12/21 01:03:45;;;;;;;16.98;7.35;;;;;;;4.95;95.87;101760.94;6290967;22;20018;-92
2020/12/21 01:06:14;;;;;;;14.15;6.07;;;;;;;4.99;95.84;101762.50;6312432;22;20081;-93
2020/12/21 01:08:39;;;;;;;17.42;7.25;;;;;;;4.96;95.73;101757.34;6313473;22;20023;-91
2020/12/21 01:11:16;;;;;;;13.82;7.00;;;;;;;4.94;95.85;101759.22;6269501;22;20011;-92
2020/12/21 01:13:43;;;;;;;17.20;6.32;;;;;;;4.97;95.74;101767.94;6311963;22;20036;-90
2020/12/21 01:16:11;;;;;;;15.93;7.13;;;;;;;4.93;95.87;101766.34;6312092;22;20343;-92
2020/12/21 01:18:37;;;;;;;15.70;7.07;;;;;;;4.91;95.96;101766.44;6313456;22;20030;-90
2020/12/21 01:21:03;;;;;;;14.55;6.05;;;;;;;4.87;96.23;101756.88;6337869;22;20025;-89
2020/12/21 01:23:28;;;;;;;23.58;6.75;;;;;;;4.84;95.97;101753.47;6312056;22;20018;-90
2020/12/21 01:25:53;;;;;;;20.27;7.35;;;;;;;4.82;95.71;101755.38;6313957;22;20029;-92
2020/12/21 01:28:19;;;;;;;16.50;6.35;;;;;;;4.87;96.13;101756.88;6339108;22;20010;-90
2020/12/21 01:30:45;;;;;;;15.95;6.75;;;;;;;4.85;95.85;101761.41;6313470;22;20447;-93
2020/12/21 01:33:10;;;;;;;19.25;6.25;;;;;;;4.79;95.80;101758.19;6311612;22;20025;-90
2020/12/21 01:35:36;;;;;;;13.88;6.20;;;;;;;4.74;96.13;101750.41;6298037;22;20009;-92
2020/12/21 01:38:02;;;;;;;19.42;6.32;;;;;;;4.78;95.85;101761.78;6312503;22;20051;-91
2020/12/21 01:40:28;;;;;;;17.10;6.00;;;;;;;4.77;95.91;101766.28;6312503;22;20010;-90
2020/12/21 01:42:53;;;;;;;19.80;6.22;;;;;;;4.77;95.78;101771.59;6339263;22;20095;-89
2020/12/21 01:45:18;;;;;;;15.77;6.05;;;;;;;4.72;95.68;101758.47;6314047;22;20069;-92
2020/12/21 01:47:44;;;;;;;17.52;6.00;;;;;;;4.70;96.08;101781.69;6315884;22;20017;-92
2020/12/21 01:50:10;;;;;;;14.88;6.28;;;;;;;4.72;95.97;101774.47;6314504;22;20018;-91
2020/12/21 01:52:37;;;;;;;17.75;5.90;;;;;;;4.72;95.90;101770.97;6314881;22;20029;-91
2020/12/21 01:55:03;;;;;;;17.80;5.50;;;;;;;4.73;95.74;101781.53;6323008;22;20030;-91
2020/12/21 01:57:29;;;;;;;11.90;4.90;;;;;;;4.69;95.67;101789.78;6322917;22;20018;-89
2020/12/21 01:59:56;;;;;;;17.13;6.43;;;;;;;4.67;95.43;101781.00;6321998;22;20076;-89
2020/12/21 02:02:22;;;;;;;19.52;5.90;;;;;;;4.66;96.20;101779.25;6315862;22;20335;-89
2020/12/21 02:04:47;;;;;;;15.90;6.65;;;;;;;4.64;95.66;101781.13;6315754;22;20041;-92
2020/12/21 02:07:14;;;;;;;14.68;5.20;;;;;;;4.69;95.92;101779.09;6313613;22;20025;-90
2020/12/21 02:09:40;;;;;;;20.35;6.20;;;;;;;4.61;95.91;101781.28;6340499;22;20089;-90
2020/12/21 02:12:09;;;;;;;18.63;6.10;;;;;;;4.57;96.11;101785.91;6346242;22;20032;-93
2020/12/21 02:14:35;;;;;;;15.60;5.93;;;;;;;4.62;96.31;101783.00;6346466;22;20013;-93
2020/12/21 02:17:00;;;;;;;18.38;6.60;;;;;;;4.56;96.06;101778.84;6347543;22;20014;-89
2020/12/21 02:19:25;;;;;;;14.80;5.80;;;;;;;4.56;96.10;101782.38;6373531;22;20010;-91
2020/12/21 02:21:51;;;;;;;17.23;5.90;;;;;;;4.54;96.29;101789.56;6372007;22;20077;-92
2020/12/21 02:24:17;;;;;;;16.70;5.90;;;;;;;4.57;95.85;101788.56;6371696;22;20018;-91
2020/12/21 02:26:42;;;;;;;17.85;5.95;;;;;;;4.59;96.14;101788.50;6345954;22;20006;-93
2020/12/21 02:29:08;;;;;;;19.17;6.50;;;;;;;4.66;96.21;101784.59;6371450;22;20018;-92
2020/12/21 02:31:33;;;;;;;15.88;5.95;;;;;;;4.68;96.02;101788.03;6344377;22;20014;-90
2020/12/21 02:33:59;;;;;;;19.92;7.15;;;;;;;4.70;95.81;101791.50;6346211;22;20006;-92
2020/12/21 02:36:25;;;;;;;14.25;6.35;;;;;;;4.72;96.63;101789.63;6344923;22;20081;-90
2020/12/21 02:38:50;;;;;;;12.80;5.63;;;;;;;4.70;96.07;101791.50;6344794;22;20009;-92
2020/12/21 02:41:18;;;;;;;16.80;6.97;;;;;;;4.69;95.87;101784.44;6343598;22;20014;-92
2020/12/21 02:43:44;;;;;;;17.02;6.47;;;;;;;4.74;95.76;101785.06;6344912;22;20013;-92
2020/12/21 02:46:12;;;;;;;18.38;6.80;;;;;;;4.76;95.92;101783.22;6344564;22;20018;-90
2020/12/21 02:48:39;;;;;;;26.35;8.30;;;;;;;4.74;96.15;101782.41;6345300;22;20013;-90
2020/12/21 02:51:05;;;;;;;19.83;7.05;;;;;;;4.68;96.07;101788.03;6342670;22;20024;-91
2020/12/21 02:53:31;;;;;;;20.52;7.53;;;;;;;4.69;96.32;101779.09;6343812;22;20010;-92
2020/12/21 02:55:58;;;;;;;13.95;6.13;;;;;;;4.64;96.39;101775.78;6345364;22;20014;-92
2020/12/21 02:58:24;;;;;;;20.67;6.60;;;;;;;4.62;96.48;101783.00;6344475;22;20037;-93
2020/12/21 03:00:49;;;;;;;20.67;8.80;;;;;;;4.57;96.26;101786.75;6370196;22;20014;-93
2020/12/21 03:03:15;;;;;;;19.27;7.68;;;;;;;4.56;96.27;101777.06;6343151;22;20021;-94
2020/12/21 03:05:41;;;;;;;16.63;7.13;;;;;;;4.49;96.37;101778.28;6344677;22;20489;-90
2020/12/21 03:08:07;;;;;;;21.88;7.78;;;;;;;4.51;96.94;101772.88;6343695;22;20044;-93
2020/12/21 03:10:33;;;;;;;32.10;9.00;;;;;;;4.54;97.01;101772.72;6339659;22;20399;-92
2020/12/21 03:13:01;;;;;;;20.65;8.70;;;;;;;4.53;96.77;101768.31;6302227;22;20093;-93
2020/12/21 03:15:26;;;;;;;22.88;8.30;;;;;;;4.51;97.04;101776.41;6315754;22;20080;-91
2020/12/21 03:17:54;;;;;;;22.08;7.70;;;;;;;4.50;97.00;101772.00;6316299;22;20014;-91
2020/12/21 03:20:22;;;;;;;26.02;9.80;;;;;;;4.57;96.71;101759.25;6315222;22;20044;-92
2020/12/21 03:22:47;;;;;;;25.92;8.23;;;;;;;4.59;96.69;101769.84;6315324;22;20060;-92
2020/12/21 03:25:13;;;;;;;27.33;8.43;;;;;;;4.62;96.90;101761.69;6314846;22;20019;-90
2020/12/21 03:27:40;;;;;;;20.40;7.78;;;;;;;4.65;96.83;101756.19;6314934;22;20003;-91
2020/12/21 03:30:06;;;;;;;18.98;8.00;;;;;;;4.70;96.93;101757.69;6316069;22;20015;-90
2020/12/21 03:32:31;;;;;;;19.05;8.32;;;;;;;4.70;97.08;101767.50;6313148;22;20017;-90
2020/12/21 03:34:57;;;;;;;22.88;8.27;;;;;;;4.68;96.60;101756.94;6314919;22;20089;-92
2020/12/21 03:37:22;;;;;;;17.75;8.20;;;;;;;4.72;96.82;101757.63;6313993;22;20033;-91
2020/12/21 03:39:50;;;;;;;23.65;7.35;;;;;;;4.68;96.80;101756.03;6316612;22;20006;-93
2020/12/21 03:42:17;;;;;;;17.55;7.88;;;;;;;4.65;96.62;101740.19;6314943;22;20458;-91
2020/12/21 03:44:42;;;;;;;20.20;8.10;;;;;;;4.65;97.02;101746.41;6318218;22;20027;-91
2020/12/21 03:47:08;;;;;;;25.38;7.82;;;;;;;4.72;96.63;101757.63;6298368;22;20553;-88
2020/12/21 03:49:33;;;;;;;20.13;7.82;;;;;;;4.75;96.91;101746.81;6316948;22;20017;-93
2020/12/21 03:51:58;;;;;;;19.67;7.07;;;;;;;4.68;96.85;101742.72;6315416;22;20014;-91
2020/12/21 03:54:31;;;;;;;17.13;7.38;;;;;;;4.66;96.79;101749.94;6315599;22;20010;-90
2020/12/21 03:56:57;;;;;;;20.00;6.65;;;;;;;4.61;96.90;101750.16;6314655;22;20072;-93
2020/12/21 03:59:22;;;;;;;23.92;7.30;;;;;;;4.69;97.26;101758.63;6299994;22;20092;-89
2020/12/21 04:01:48;;;;;;;20.88;7.18;;;;;;;4.69;96.75;101765.78;6315214;22;20341;-92
2020/12/21 04:04:13;;;;;;;21.83;7.80;;;;;;;4.60;96.98;101752.91;6313949;22;20022;-91
2020/12/21 04:06:40;;;;;;;16.05;6.80;;;;;;;4.63;96.79;101758.09;6315274;22;20006;-92
2020/12/21 04:09:06;;;;;;;21.75;7.75;;;;;;;4.61;97.04;101759.94;6347317;22;20028;-92
2020/12/21 04:11:32;;;;;;;18.95;7.47;;;;;;;4.54;96.92;101760.25;6323150;22;20478;-92
2020/12/21 04:13:59;;;;;;;22.40;8.48;;;;;;;4.56;97.09;101747.72;6326797;22;20025;-93
2020/12/21 04:16:24;;;;;;;23.83;8.23;;;;;;;4.51;97.38;101738.22;6346589;22;20010;-95
2020/12/21 04:18:52;;;;;;;31.95;9.40;;;;;;;4.54;97.14;101743.41;6348848;22;20021;-92
2020/12/21 04:21:20;;;;;;;24.50;8.68;;;;;;;4.48;97.37;101728.56;6346624;22;20041;-92
2020/12/21 04:23:45;;;;;;;26.00;8.85;;;;;;;4.50;97.20;101725.81;6345967;22;20377;-92
2020/12/21 04:26:13;;;;;;;20.67;8.77;;;;;;;4.50;97.37;101729.34;6371772;22;20025;-93
2020/12/21 04:28:39;;;;;;;26.17;8.20;;;;;;;4.47;97.28;101741.97;6347199;22;20012;-91
2020/12/21 04:31:05;;;;;;;21.45;8.95;;;;;;;4.43;97.35;101738.59;6347025;22;20037;-93
2020/12/21 04:33:33;;;;;;;27.27;9.52;;;;;;;4.49;97.61;101740.97;6326842;22;20091;-93
2020/12/21 04:35:59;;;;;;;17.42;8.10;;;;;;;4.48;97.80;101744.56;6325570;22;20020;-93
2020/12/21 04:38:25;;;;;;;23.45;8.68;;;;;;;4.47;97.73;101741.97;6346422;22;20089;-93
2020/12/21 04:40:54;;;;;;;17.67;8.05;;;;;;;4.49;97.81;101740.97;6347241;22;20048;-92
2020/12/21 04:43:20;;;;;;;;;;;;;;;4.45;97.55;101744.72;6345895;22;20014;-90
2020/12/21 04:45:52;;;;;;;26.17;7.60;;;;;;;4.46;97.78;101733.13;6372927;22;20396;-94
2020/12/21 04:48:20;;;;;;;21.25;7.15;;;;;;;4.55;97.99;101740.66;6346841;22;20075;-91
2020/12/21 04:50:46;;;;;;;22.65;8.13;;;;;;;4.52;97.47;101732.81;6345942;22;20014;-93
2020/12/21 04:53:12;;;;;;;21.60;7.10;;;;;;;4.52;97.84;101730.16;6357505;22;20320;-93
2020/12/21 04:55:37;;;;;;;20.88;7.65;;;;;;;4.54;97.96;101728.25;6346405;22;20009;-91
2020/12/21 04:58:04;;;;;;;27.70;9.30;;;;;;;4.63;97.51;101724.28;6346311;22;20043;-92
2020/12/21 05:00:32;;;;;;;22.20;7.03;;;;;;;4.56;97.40;101721.06;6345644;22;20024;-89
2020/12/21 05:02:58;;;;;;;23.52;8.68;;;;;;;4.59;97.92;101720.03;6346215;22;20013;-91
2020/12/21 05:05:39;;;;;;;27.20;7.93;;;;;;;4.60;97.60;101712.91;6371919;22;20025;-89
2020/12/21 05:08:16;;;;;;;20.65;7.63;;;;;;;4.55;97.68;101708.66;6357435;22;20010;-89
2020/12/21 05:10:43;;;;;;;26.38;8.40;;;;;;;4.53;97.62;101710.56;6321256;22;20032;-91
2020/12/21 05:13:10;;;;;;;19.70;8.48;;;;;;;4.50;97.60;101700.00;6313713;22;20386;-91
2020/12/21 05:15:38;;;;;;;22.17;7.53;;;;;;;4.54;97.75;101711.41;6315556;22;20007;-90
2020/12/21 05:18:08;;;;;;;30.35;8.43;;;;;;;4.54;97.59;101704.25;6312721;22;20018;-91
2020/12/21 05:20:40;;;;;;;26.20;9.35;;;;;;;4.53;97.75;101710.56;6302506;22;20454;-89
2020/12/21 05:23:16;;;;;;;23.55;9.02;;;;;;;4.54;97.79;101711.41;6312810;22;20067;-91
2020/12/21 05:25:43;;;;;;;30.63;8.50;;;;;;;4.51;98.10;101701.75;6315031;22;20018;-89
2020/12/21 05:28:12;;;;;;;30.90;10.02;;;;;;;4.53;98.15;101705.22;6340482;22;20021;-91
2020/12/21 05:30:58;;;;;;;;;;;;;;;4.60;98.06;101699.59;6315059;22;20017;-92
2020/12/21 05:33:23;;;;;;;28.83;8.90;;;;;;;4.56;97.79;101694.41;6339919;22;19917;-92
2020/12/21 05:35:49;;;;;;;25.08;9.10;;;;;;;4.59;97.90;101688.03;6314011;22;20010;-93
2020/12/21 05:38:28;;;;;;;19.98;8.02;;;;;;;4.63;97.89;101681.63;6313945;22;20014;-91
2020/12/21 05:41:05;;;;;;;27.15;8.93;;;;;;;4.64;97.72;101683.34;6313361;22;20020;-92
2020/12/21 05:43:31;;;;;;;32.42;8.65;;;;;;;4.64;97.88;101693.13;6314277;22;20091;-91
2020/12/21 05:46:04;;;;;;;21.38;7.82;;;;;;;4.64;97.68;101685.13;6314530;22;20022;-93
2020/12/21 05:48:33;;;;;;;21.60;7.55;;;;;;;4.63;97.62;101683.44;6314460;22;20010;-92
2020/12/21 05:51:02;;;;;;;;;;;;;;;4.67;97.62;101680.53;6314190;22;20499;-92
2020/12/21 05:53:35;;;;;;;24.25;7.15;;;;;;;4.70;97.59;101680.38;6339316;22;19906;-90
2020/12/21 05:56:02;;;;;;;22.48;7.15;;;;;;;4.68;97.37;101689.38;6314342;22;20085;-90
2020/12/21 05:58:31;;;;;;;19.33;7.28;;;;;;;4.60;97.56;101688.91;6313789;22;20025;-90
2020/12/21 06:00:59;;;;;;;24.90;9.10;;;;;;;4.64;97.74;101685.13;6313729;22;20021;-92
2020/12/21 06:03:37;;;;;;;24.00;9.50;;;;;;;4.71;97.91;101689.22;6326714;22;20010;-93
2020/12/21 06:06:06;;;;;;;28.02;9.38;;;;;;;4.69;97.68;101688.44;6367027;22;20018;-93
2020/12/21 06:08:34;;;;;;;28.17;10.20;;;;;;;4.64;97.67;101696.69;6315681;22;20362;-92
2020/12/21 06:11:08;;;;;;;33.47;11.43;;;;;;;4.66;97.65;101693.94;6315183;22;20023;-93
2020/12/21 06:13:35;;;;;;;30.00;9.20;;;;;;;4.63;97.73;101689.63;6313988;22;20007;-89
2020/12/21 06:16:01;;;;;;;42.78;11.57;;;;;;;4.67;97.60;101691.19;6312861;22;20097;-91
2020/12/21 06:18:27;;;;;;;30.80;9.32;;;;;;;4.59;97.44;101687.19;6314117;22;20044;-93
2020/12/21 06:20:52;;;;;;;28.20;9.25;;;;;;;4.51;97.76;101680.44;6313311;22;20018;-92
2020/12/21 06:23:17;;;;;;;25.00;10.00;;;;;;;4.47;97.89;101686.84;6313862;22;20145;-92
2020/12/21 06:25:43;;;;;;;34.90;10.77;;;;;;;4.48;98.05;101680.59;6313783;22;20010;-92
2020/12/21 06:28:08;;;;;;;37.92;11.25;;;;;;;4.50;97.83;101680.50;6315355;22;20015;-90
2020/12/21 06:30:34;;;;;;;28.52;10.13;;;;;;;4.46;98.34;101685.13;6314418;22;20386;-94
2020/12/21 06:33:01;;;;;;;31.25;10.80;;;;;;;4.42;97.90;101688.88;6315097;22;20684;-92
2020/12/21 06:35:27;;;;;;;29.92;11.13;;;;;;;4.39;97.98;101689.91;6312606;22;20010;-93
2020/12/21 06:38:03;;;;;;;35.88;11.70;;;;;;;4.47;98.10;101686.00;6314354;22;20067;-93
2020/12/21 06:40:35;;;;;;;27.88;9.82;;;;;;;4.51;98.10;101684.91;6313266;22;20140;-93
2020/12/21 06:43:11;;;;;;;32.17;10.93;;;;;;;4.45;98.24;101679.88;6314153;22;20010;-91
2020/12/21 06:45:36;;;;;;;33.38;10.40;;;;;;;4.44;98.00;101683.47;6314138;22;20026;-93
2020/12/21 06:48:03;;;;;;;45.35;10.25;;;;;;;4.42;98.35;101678.22;6315429;22;20023;-91
2020/12/21 06:50:28;;;;;;;46.50;11.75;;;;;;;4.48;98.30;101674.41;6315672;22;20013;-90
2020/12/21 06:52:54;;;;;;;38.75;11.35;;;;;;;4.46;98.21;101674.47;6316274;22;20463;-92
2020/12/21 06:55:19;;;;;;;47.42;12.40;;;;;;;4.44;98.02;101673.66;6312041;22;20014;-92
2020/12/21 06:57:53;;;;;;;38.45;11.75;;;;;;;4.44;98.26;101681.66;6301520;22;20458;-91
2020/12/21 07:00:21;;;;;;;36.10;10.13;;;;;;;4.49;98.44;101676.09;6313706;22;20014;-92
2020/12/21 07:02:49;;;;;;;37.50;11.07;;;;;;;4.52;98.41;101681.28;6313535;22;20018;-92
2020/12/21 07:05:15;;;;;;;33.70;9.90;;;;;;;4.51;98.57;101669.75;6315569;22;20033;-93
2020/12/21 07:07:40;;;;;;;32.38;9.77;;;;;;;4.50;98.04;101672.50;6342687;22;20010;-92
2020/12/21 07:10:13;;;;;;;32.55;11.43;;;;;;;4.53;98.38;101672.34;6314746;22;20029;-91
2020/12/21 07:12:38;;;;;;;27.33;9.13;;;;;;;4.49;98.17;101674.31;6340581;22;20014;-93
2020/12/21 07:15:05;;;;;;;24.60;8.55;;;;;;;4.51;98.09;101672.44;6301548;22;20022;-92
2020/12/21 07:17:31;;;;;;;29.58;10.70;;;;;;;4.52;98.27;101674.16;6316898;22;20007;-92
2020/12/21 07:20:00;;;;;;;31.90;9.00;;;;;;;4.50;98.24;101673.34;6315539;22;20018;-93
2020/12/21 07:22:25;;;;;;;36.50;10.48;;;;;;;4.51;98.08;101668.91;6314039;22;20014;-94
2020/12/21 07:25:20;;;;;;;;;;;;;;;;;;;;;
2020/12/21 07:27:49;;;;;;;34.60;10.60;;;;;;;4.52;98.36;101659.94;6340232;22;20375;-88
2020/12/21 07:30:15;;;;;;;35.33;9.77;;;;;;;4.55;98.49;101660.69;6314322;22;20141;-93
2020/12/21 07:32:40;;;;;;;33.25;9.85;;;;;;;4.57;98.44;101669.44;6308485;22;20026;-94
2020/12/21 07:35:05;;;;;;;30.38;9.40;;;;;;;4.64;98.37;101658.47;6313870;22;20019;-88
2020/12/21 07:37:32;;;;;;;41.67;10.57;;;;;;;4.65;98.39;101655.75;6316258;22;20006;-94
2020/12/21 07:40:00;;;;;;;31.25;8.70;;;;;;;4.63;97.96;101659.44;6317307;22;20021;-90
2020/12/21 07:42:30;;;;;;;24.05;7.35;;;;;;;4.63;98.62;101657.63;6310760;22;20498;-92
2020/12/21 07:45:00;;;;;;;31.00;7.85;;;;;;;4.65;98.01;101660.19;6314654;22;20084;-92
2020/12/21 07:47:30;;;;;;;36.53;9.80;;;;;;;4.62;98.36;101650.53;6286977;22;20014;-89
2020/12/21 07:50:02;;;;;;;34.75;8.70;;;;;;;4.66;98.35;101646.78;6313699;22;20058;-90
2020/12/21 07:52:28;;;;;;;37.22;9.52;;;;;;;4.70;98.42;101652.84;6311647;22;20034;-93
2020/12/21 07:54:53;;;;;;;26.55;8.68;;;;;;;4.75;98.63;101650.78;6274391;22;20411;-94
2020/12/21 07:57:22;;;;;;;22.77;8.10;;;;;;;4.75;97.93;101640.13;6279596;22;20025;-93
2020/12/21 08:00:01;;;;;;;31.35;8.23;;;;;;;4.80;98.30;101624.75;6295015;22;20007;-92
2020/12/21 08:02:29;;;;;;;31.75;7.68;;;;;;;4.79;98.32;101620.34;6290947;22;20080;-91
2020/12/21 08:04:55;;;;;;;29.15;9.00;;;;;;;4.83;97.97;101624.59;6293435;22;20026;-90
2020/12/21 08:07:33;;;;;;;26.95;8.35;;;;;;;4.89;98.07;101640.28;6309931;22;20051;-90
2020/12/21 08:09:59;;;;;;;29.40;8.27;;;;;;;4.93;98.15;101632.09;6315622;22;20046;-92
2020/12/21 08:12:30;;;;;;;25.48;8.27;;;;;;;4.90;98.27;101634.00;6313085;22;20056;-88
2020/12/21 08:14:59;;;;;;;23.58;7.68;;;;;;;4.90;97.91;101633.13;6322421;22;20017;-93
2020/12/21 08:17:33;;;;;;;28.95;8.95;;;;;;;4.90;98.25;101628.66;6299329;22;20017;-91
2020/12/21 08:20:07;;;;;;;22.15;7.25;;;;;;;4.92;97.88;101631.25;6314471;22;20014;-92
2020/12/21 08:22:33;;;;;;;29.85;8.63;;;;;;;4.94;97.92;101634.69;6313788;22;20034;-90
2020/12/21 08:25:12;;;;;;;29.38;8.60;;;;;;;5.06;98.11;101625.19;6313267;22;20023;-91
2020/12/21 08:27:38;;;;;;;32.25;8.48;;;;;;;5.12;97.67;101626.66;6315115;22;20006;-90
2020/12/21 08:30:14;;;;;;;33.63;8.35;;;;;;;5.13;97.48;101623.91;6313155;22;20455;-90
2020/12/21 08:32:40;;;;;;;30.65;9.15;;;;;;;5.13;97.48;101607.06;6315182;22;20030;-91
2020/12/21 08:35:09;;;;;;;35.58;9.20;;;;;;;5.17;97.41;101608.63;6316265;22;20014;-92
2020/12/21 08:37:35;;;;;;;31.88;9.40;;;;;;;5.17;98.09;101612.13;6317664;22;20018;-92
2020/12/21 08:40:16;;;;;;;30.30;9.75;;;;;;;5.15;97.62;101606.00;6311798;22;20458;-93
2020/12/21 08:42:46;;;;;;;24.33;8.02;;;;;;;5.25;97.07;101596.56;6322681;22;20021;-89
2020/12/21 08:45:23;;;;;;;20.88;8.20;;;;;;;5.31;97.04;101594.50;6266773;22;20018;-91
2020/12/21 08:47:49;;;;;;;29.63;7.70;;;;;;;5.36;96.73;101603.09;6317599;22;20010;-91
2020/12/21 08:50:23;;;;;;;26.73;8.65;;;;;;;5.41;97.08;101607.25;6298071;22;20444;-90
2020/12/21 08:52:49;;;;;;;26.02;8.13;;;;;;;5.45;96.36;101583.94;6294346;22;20007;-90
2020/12/21 08:55:15;;;;;;;30.15;8.55;;;;;;;5.54;96.68;101591.44;6276047;22;20444;-93
2020/12/21 08:57:40;;;;;;;22.42;7.75;;;;;;;5.55;96.41;101590.50;6316485;22;20017;-88
2020/12/21 09:00:11;;;;;;;16.77;6.55;;;;;;;5.60;96.67;101593.75;6315981;22;20021;-92
2020/12/21 09:02:39;;;;;;;26.25;7.13;;;;;;;5.63;96.22;101594.53;6271859;22;20022;-88
2020/12/21 09:05:05;;;;;;;27.55;7.95;;;;;;;5.67;96.64;101588.06;6314008;22;20456;-92
2020/12/21 09:07:34;;;;;;;15.50;6.88;;;;;;;5.72;96.18;101592.19;6316137;22;20016;-87
2020/12/21 09:10:02;;;;;;;19.10;7.17;;;;;;;5.80;95.57;101597.13;6314236;22;20093;-89
2020/12/21 09:12:53;;;;;;;18.80;6.80;;;;;;;5.83;96.03;101609.44;6258649;22;20243;-91
2020/12/21 09:15:39;;;;;;;;;;;;;;;;;;;;;
2020/12/21 09:18:05;;;;;;;26.80;7.72;;;;;;;5.95;95.43;101606.06;6268334;22;20085;-90
2020/12/21 09:20:30;;;;;;;17.55;7.10;;;;;;;6.01;95.39;101594.19;6305685;22;20018;-92
2020/12/21 09:23:02;;;;;;;17.27;7.07;;;;;;;6.03;95.74;101578.94;6256567;22;20012;-91
2020/12/21 09:25:30;;;;;;;20.90;7.43;;;;;;;6.04;95.49;101565.47;6281082;22;20010;-90
2020/12/21 09:28:04;;;;;;;16.48;7.22;;;;;;;6.09;95.86;101575.91;6254437;22;20019;-93
2020/12/21 09:30:36;;;;;;;22.13;7.70;;;;;;;6.11;95.68;101566.84;6256979;22;20006;-89
2020/12/21 09:33:02;;;;;;;30.20;9.07;;;;;;;6.12;95.27;101560.56;6274632;22;20018;-90
2020/12/21 09:35:31;;;;;;;29.20;10.07;;;;;;;6.20;95.05;101565.44;6284359;22;20011;-90
2020/12/21 09:38:03;;;;;;;23.98;8.23;;;;;;;6.24;95.03;101564.31;6233592;22;20086;-90
2020/12/21 09:40:31;;;;;;;27.20;9.35;;;;;;;6.25;95.26;101560.69;6261066;22;20094;-90
2020/12/21 09:43:00;;;;;;;23.67;9.23;;;;;;;6.31;95.13;101559.47;6277070;22;20075;-91
2020/12/21 09:45:25;;;;;;;22.38;7.75;;;;;;;6.35;95.14;101557.47;6261546;22;20038;-90
2020/12/21 09:47:51;;;;;;;32.60;9.38;;;;;;;6.36;94.72;101561.84;6235547;22;20332;-92
2020/12/21 09:50:20;;;;;;;24.83;8.38;;;;;;;6.40;94.77;101552.72;6252909;22;20022;-92
2020/12/21 09:52:46;;;;;;;;;;;;;;;6.44;94.82;101548.91;6283750;22;20026;-91
2020/12/21 09:55:13;;;;;;;21.67;7.70;;;;;;;6.46;94.81;101552.34;6254683;22;19929;-92
2020/12/21 09:57:39;;;;;;;30.75;9.98;;;;;;;6.55;94.95;101561.63;6255053;22;20027;-86
2020/12/21 10:00:05;;;;;;;21.60;7.70;;;;;;;6.59;94.09;101553.31;6250975;22;20090;-93
2020/12/21 10:02:34;;;;;;;21.88;7.32;;;;;;;6.61;94.02;101548.75;6282860;22;20022;-93
2020/12/21 10:05:06;;;;;;;28.48;9.00;;;;;;;6.62;94.28;101545.09;6282855;22;20026;-95
2020/12/21 10:07:34;;;;;;;25.00;7.95;;;;;;;6.69;93.88;101542.91;6280407;22;20015;-94
2020/12/21 10:10:00;;;;;;;31.90;9.68;;;;;;;6.70;94.37;101533.06;6284820;22;20045;-94
2020/12/21 10:12:28;;;;;;;21.45;8.38;;;;;;;6.76;93.94;101527.38;6280486;22;20011;-92
2020/12/21 10:15:04;;;;;;;21.45;7.38;;;;;;;6.82;93.88;101522.47;6241255;22;20033;-94
2020/12/21 10:17:30;;;;;;;24.35;7.93;;;;;;;6.84;94.12;101506.31;6284315;22;20058;-89
2020/12/21 10:19:58;;;;;;;23.90;7.28;;;;;;;6.85;93.00;101500.03;6244654;22;20503;-94
2020/12/21 10:22:39;;;;;;;15.50;5.40;;;;;;;6.93;93.70;101487.00;6283542;22;20082;-94
2020/12/21 10:25:08;;;;;;;11.13;4.90;;;;;;;6.95;93.45;101477.06;6283424;22;20030;-92
2020/12/21 10:27:33;;;;;;;14.23;5.72;;;;;;;6.92;93.29;101477.28;6285715;22;20019;-88
2020/12/21 10:29:59;;;;;;;15.85;5.95;;;;;;;6.96;92.80;101457.41;6244777;22;20015;-90
2020/12/21 10:32:33;;;;;;;14.30;6.85;;;;;;;6.98;93.28;101471.53;6281897;22;20091;-95
2020/12/21 10:35:06;;;;;;;25.92;8.00;;;;;;;7.05;93.32;101476.47;6244440;22;20022;-91
2020/12/21 10:37:44;;;;;;;18.27;7.22;;;;;;;7.07;93.37;101477.25;6285338;22;20015;-92
2020/12/21 10:40:12;;;;;;;22.02;8.13;;;;;;;7.07;92.61;101469.22;6279883;22;20083;-93
2020/12/21 10:42:40;;;;;;;22.10;8.00;;;;;;;7.07;92.93;101474.59;6312490;22;20086;-94
2020/12/21 10:45:06;;;;;;;16.00;6.35;;;;;;;7.05;93.36;101471.13;6284779;22;20015;-89
2020/12/21 10:47:34;;;;;;;19.38;6.60;;;;;;;7.03;93.63;101468.56;6285624;22;20091;-89
2020/12/21 10:50:02;;;;;;;16.67;7.45;;;;;;;7.04;93.18;101454.22;6296978;22;20086;-89
2020/12/21 10:52:31;;;;;;;29.70;8.65;;;;;;;7.01;93.34;101449.06;6283777;22;20057;-92
2020/12/21 10:55:01;;;;;;;17.23;7.00;;;;;;;7.03;93.92;101435.59;6283645;22;20099;-89
2020/12/21 10:57:32;;;;;;;22.45;7.95;;;;;;;7.01;94.01;101431.19;6307371;22;20015;-90
2020/12/21 11:00:38;;;;;;;17.52;7.03;;;;;;;7.01;93.87;101430.34;6311991;22;20015;-96
2020/12/21 11:03:12;;;;;;;14.15;6.60;;;;;;;7.00;94.43;101424.09;6294374;22;20018;-94
2020/12/21 11:05:43;;;;;;;20.35;6.53;;;;;;;6.99;94.98;101417.06;6260896;22;20015;-94
2020/12/21 11:08:09;;;;;;;20.63;7.53;;;;;;;6.91;95.28;101408.66;6223929;22;20070;-92
2020/12/21 11:10:37;;;;;;;23.70;7.43;;;;;;;6.90;95.01;101398.88;6289965;22;20018;-91
2020/12/21 11:13:03;;;;;;;22.20;8.13;;;;;;;6.90;95.23;101384.66;6287119;22;20045;-89
2020/12/21 11:15:39;;;;;;;21.80;7.25;;;;;;;6.87;95.32;101384.88;6315102;22;20014;-91
2020/12/21 11:18:08;;;;;;;16.90;7.00;;;;;;;6.88;95.58;101387.44;6285490;22;20098;-93
2020/12/21 11:20:34;;;;;;;;;;;;;;;6.89;95.87;101389.16;6302816;22;20041;-94
2020/12/21 11:23:02;;;;;;;9.80;5.10;;;;;;;6.92;95.64;101385.41;6314624;22;20227;-90
2020/12/21 11:26:04;;;;;;;18.55;6.30;;;;;;;6.90;96.06;101390.88;6310770;22;20014;-93
2020/12/21 11:28:32;;;;;;;14.38;5.53;;;;;;;6.88;95.82;101379.41;6292416;22;20011;-94
2020/12/21 11:30:57;;;;;;;15.57;5.97;;;;;;;6.91;95.87;101375.69;6311481;22;20026;-92
2020/12/21 11:33:25;;;;;;;16.40;5.38;;;;;;;6.93;96.06;101379.97;6306343;22;20014;-93
2020/12/21 11:36:13;;;;;;;13.15;5.70;;;;;;;6.90;95.84;101358.75;6312986;22;20010;-94
2020/12/21 11:39:04;;;;;;;16.73;6.22;;;;;;;6.90;96.48;101357.91;6285394;22;20010;-92